createdAt,value
2022-10-29T00:00:44.707Z,35.05
2022-10-29T00:03:30.325Z,32.92
2022-10-29T00:06:15.143Z,30.42
2022-10-29T00:11:44.245Z,26.15
2022-10-29T00:14:29.216Z,27.13
2022-10-29T00:17:15.587Z,38.72
2022-10-29T00:20:00.079Z,33.33
2022-10-29T00:22:44.974Z,31.67
2022-10-29T00:25:30.221Z,32.72
2022-10-29T00:28:14.835Z,34.10
2022-10-29T00:31:04.452Z,35.70
2022-10-29T00:33:50.243Z,37.42
2022-10-29T00:36:35.065Z,35.20
2022-10-29T00:39:20.186Z,34.33
2022-10-29T00:42:05.161Z,38.10
2022-10-29T00:44:50.689Z,35.13
2022-10-29T00:47:36.968Z,34.05
2022-10-29T00:50:23.972Z,38.00
2022-10-29T00:53:08.813Z,36.60
2022-10-29T00:55:54.040Z,35.40
2022-10-29T00:58:39.501Z,36.50
2022-10-29T01:01:24.504Z,32.65
2022-10-29T01:04:10.371Z,40.80
2022-10-29T01:06:55.678Z,35.55
2022-10-29T01:09:40.731Z,31.60
2022-10-29T01:13:03.476Z,30.70
2022-10-29T01:15:56.335Z,33.00
2022-10-29T01:19:10.117Z,32.85
2022-10-29T01:22:07.097Z,29.60
2022-10-29T01:25:01.888Z,29.85
2022-10-29T01:28:17.243Z,31.38
2022-10-29T01:31:25.292Z,29.63
2022-10-29T01:34:13.679Z,33.25
2022-10-29T01:37:04.957Z,31.05
2022-10-29T01:39:56.503Z,30.95
2022-10-29T01:42:49.816Z,35.20
2022-10-29T01:46:08.866Z,35.78
2022-10-29T01:49:01.031Z,39.92
2022-10-29T01:51:46.710Z,38.05
2022-10-29T01:54:31.712Z,35.40
2022-10-29T01:57:30.645Z,34.95
2022-10-29T02:01:03.370Z,33.40
2022-10-29T02:04:29.010Z,35.75
2022-10-29T02:07:41.813Z,29.77
2022-10-29T02:10:29.501Z,33.08
2022-10-29T02:13:17.038Z,34.30
2022-10-29T02:16:06.308Z,35.50
2022-10-29T02:18:52.504Z,31.17
2022-10-29T02:21:39.755Z,35.70
2022-10-29T02:24:25.455Z,37.45
2022-10-29T02:27:10.233Z,34.30
2022-10-29T02:29:56.221Z,37.30
2022-10-29T02:32:41.490Z,33.75
2022-10-29T02:35:26.711Z,29.80
2022-10-29T02:38:11.582Z,31.02
2022-10-29T02:40:56.453Z,29.40
2022-10-29T02:43:41.055Z,32.42
2022-10-29T02:46:26.160Z,33.88
2022-10-29T02:49:11.155Z,33.47
2022-10-29T02:51:56.145Z,29.65
2022-10-29T02:54:42.235Z,34.83
2022-10-29T02:57:27.169Z,33.03
2022-10-29T03:00:12.874Z,33.10
2022-10-29T03:02:57.965Z,31.73
2022-10-29T03:05:48.077Z,31.88
2022-10-29T03:08:34.275Z,38.67
2022-10-29T03:11:19.211Z,34.85
2022-10-29T03:14:04.281Z,33.75
2022-10-29T03:16:49.495Z,33.08
2022-10-29T03:19:34.215Z,37.13
2022-10-29T03:22:19.258Z,42.92
2022-10-29T03:25:04.511Z,42.67
2022-10-29T03:27:49.217Z,37.58
2022-10-29T03:30:34.048Z,36.45
2022-10-29T03:33:19.303Z,36.97
2022-10-29T03:36:06.211Z,32.08
2022-10-29T03:38:51.119Z,30.60
2022-10-29T03:41:36.064Z,30.48
2022-10-29T03:44:21.018Z,30.95
2022-10-29T03:47:07.754Z,34.70
2022-10-29T03:49:53.126Z,37.30
2022-10-29T03:52:38.243Z,38.97
2022-10-29T03:55:23.222Z,42.05
2022-10-29T03:58:08.113Z,35.42
2022-10-29T04:03:43.376Z,38.42
2022-10-29T04:06:27.982Z,42.47
2022-10-29T04:09:13.078Z,38.22
2022-10-29T04:11:58.017Z,36.17
2022-10-29T04:14:45.686Z,33.75
2022-10-29T04:17:30.502Z,36.70
2022-10-29T04:20:31.797Z,34.65
2022-10-29T04:29:29.774Z,33.88
2022-10-29T04:32:14.697Z,35.50
2022-10-29T04:34:59.790Z,40.80
2022-10-29T04:37:44.696Z,64.40
2022-10-29T04:43:13.799Z,40.10
2022-10-29T04:45:59.320Z,40.67
2022-10-29T04:48:43.690Z,35.88
2022-10-29T04:51:28.745Z,35.10
2022-10-29T04:54:14.970Z,32.78
2022-10-29T04:56:59.585Z,36.58
2022-10-29T04:59:44.942Z,37.13
2022-10-29T05:02:29.727Z,38.20
2022-10-29T05:05:18.867Z,35.85
2022-10-29T05:08:05.103Z,37.72
2022-10-29T05:10:49.803Z,34.03
2022-10-29T05:13:35.115Z,33.45
2022-10-29T05:16:19.707Z,32.78
2022-10-29T05:19:05.279Z,38.15
2022-10-29T05:21:50.179Z,33.90
2022-10-29T05:24:35.266Z,36.83
2022-10-29T05:27:20.365Z,34.83
2022-10-29T05:30:05.660Z,37.47
2022-10-29T05:32:50.433Z,39.88
2022-10-29T05:35:35.675Z,36.20
2022-10-29T05:38:20.348Z,34.80
2022-10-29T05:41:05.317Z,32.42
2022-10-29T05:43:50.401Z,33.40
2022-10-29T05:46:35.263Z,37.38
2022-10-29T05:49:20.271Z,41.92
2022-10-29T05:52:04.890Z,52.97
2022-10-29T05:57:34.314Z,44.92
2022-10-29T06:00:19.590Z,55.17
2022-10-29T06:03:11.530Z,33.22
2022-10-29T06:05:56.106Z,35.72
2022-10-29T06:08:40.897Z,39.92
2022-10-29T06:11:25.963Z,46.05
2022-10-29T06:14:10.946Z,49.55
2022-10-29T06:16:55.698Z,47.95
2022-10-29T06:25:09.805Z,41.80
2022-10-29T06:28:06.201Z,38.80
2022-10-29T06:30:51.115Z,34.17
2022-10-29T06:33:35.906Z,33.67
2022-10-29T06:36:20.987Z,37.30
2022-10-29T06:39:05.850Z,31.58
2022-10-29T06:41:50.250Z,18.48
2022-10-29T06:44:36.621Z,23.60
2022-10-29T06:47:21.543Z,17.92
2022-10-29T06:50:06.554Z,18.20
2022-10-29T06:53:06.115Z,18.38
2022-10-29T06:55:50.818Z,18.02
2022-10-29T06:58:35.949Z,17.10
2022-10-29T07:01:20.524Z,20.00
2022-10-29T07:04:05.377Z,17.50
2022-10-29T07:06:50.035Z,17.83
2022-10-29T07:09:34.911Z,16.45
2022-10-29T07:12:20.143Z,17.40
2022-10-29T07:15:05.489Z,17.25
2022-10-29T07:18:03.959Z,17.30
2022-10-29T07:20:48.833Z,18.23
2022-10-29T07:23:33.890Z,20.25
2022-10-29T07:26:18.984Z,20.25
2022-10-29T07:29:04.275Z,22.25
2022-10-29T07:31:48.995Z,16.30
2022-10-29T07:34:33.590Z,17.73
2022-10-29T07:37:18.843Z,17.58
2022-10-29T07:40:04.698Z,18.08
2022-10-29T07:42:53.803Z,16.63
2022-10-29T07:45:38.840Z,16.58
2022-10-29T07:48:23.860Z,14.40
2022-10-29T07:51:08.907Z,14.65
2022-10-29T07:53:53.651Z,15.13
2022-10-29T07:56:40.209Z,18.05
2022-10-29T07:59:27.027Z,14.48
2022-10-29T08:02:11.878Z,13.90
2022-10-29T08:04:56.838Z,16.55
2022-10-29T08:07:41.759Z,12.68
2022-10-29T08:10:27.052Z,11.55
2022-10-29T08:13:11.895Z,11.00
2022-10-29T08:15:56.859Z,12.27
2022-10-29T08:18:41.837Z,12.77
2022-10-29T08:21:26.923Z,11.55
2022-10-29T08:24:12.131Z,13.85
2022-10-29T08:26:57.091Z,13.73
2022-10-29T08:29:42.462Z,14.18
2022-10-29T08:32:27.291Z,12.48
2022-10-29T08:35:13.088Z,12.98
2022-10-29T08:37:58.269Z,13.68
2022-10-29T08:40:52.742Z,11.48
2022-10-29T08:43:44.594Z,11.88
2022-10-29T08:47:05.252Z,10.43
2022-10-29T08:50:13.810Z,12.95
2022-10-29T08:56:16.295Z,10.88
2022-10-29T08:59:06.065Z,13.75
2022-10-29T09:01:54.820Z,14.70
2022-10-29T09:04:39.781Z,11.93
2022-10-29T09:07:45.960Z,12.48
2022-10-29T09:10:54.318Z,10.35
2022-10-29T09:13:39.216Z,11.18
2022-10-29T09:16:35.808Z,10.25
2022-10-29T09:19:38.514Z,10.98
2022-10-29T09:22:35.567Z,8.77
2022-10-29T09:25:27.211Z,11.30
2022-10-29T09:28:14.651Z,10.35
2022-10-29T09:31:20.674Z,9.15
2022-10-29T09:34:12.834Z,8.15
2022-10-29T09:36:58.765Z,10.48
2022-10-29T09:39:47.238Z,9.98
2022-10-29T09:42:39.121Z,8.07
2022-10-29T09:45:38.937Z,10.30
2022-10-29T09:48:36.566Z,7.72
2022-10-29T09:52:35.255Z,9.35
2022-10-29T09:55:24.972Z,7.70
2022-10-29T09:58:27.532Z,9.25
2022-10-29T10:01:13.264Z,6.80
2022-10-29T10:04:10.757Z,6.32
2022-10-29T10:07:10.464Z,7.47
2022-10-29T10:10:04.851Z,9.40
2022-10-29T10:12:50.559Z,6.03
2022-10-29T10:15:36.658Z,6.88
2022-10-29T10:18:24.498Z,6.82
2022-10-29T10:21:11.601Z,8.32
2022-10-29T10:23:57.776Z,7.47
2022-10-29T10:26:43.020Z,7.82
2022-10-29T10:29:28.041Z,7.65
2022-10-29T10:32:16.600Z,7.68
2022-10-29T10:35:01.306Z,9.15
2022-10-29T10:37:46.331Z,10.60
2022-10-29T10:40:31.394Z,10.55
2022-10-29T10:43:21.239Z,8.48
2022-10-29T10:49:15.510Z,11.07
2022-10-29T10:52:04.149Z,8.85
2022-10-29T10:55:01.187Z,10.15
2022-10-29T10:57:54.422Z,8.45
2022-10-29T11:00:44.624Z,8.68
2022-10-29T11:04:05.901Z,11.65
2022-10-29T11:06:55.369Z,9.43
2022-10-29T11:09:46.176Z,9.75
2022-10-29T11:12:38.436Z,10.05
2022-10-29T11:15:41.896Z,9.32
2022-10-29T11:18:58.019Z,7.18
2022-10-29T11:21:57.983Z,12.00
2022-10-29T11:24:48.782Z,13.45
2022-10-29T11:27:51.119Z,10.02
2022-10-29T11:30:45.570Z,9.93
2022-10-29T11:33:56.454Z,7.88
2022-10-29T11:36:51.432Z,8.60
2022-10-29T11:39:49.488Z,8.52
2022-10-29T11:42:35.590Z,8.02
2022-10-29T11:45:45.801Z,10.15
2022-10-29T11:48:45.719Z,8.05
2022-10-29T11:51:58.408Z,9.27
2022-10-29T11:55:18.586Z,8.40
2022-10-29T11:58:18.633Z,8.10
2022-10-29T12:01:17.467Z,8.77
2022-10-29T12:04:21.242Z,8.48
2022-10-29T12:07:33.291Z,9.80
2022-10-29T12:10:36.825Z,7.18
2022-10-29T12:13:27.546Z,9.27
2022-10-29T12:16:34.873Z,11.07
2022-10-29T12:19:31.949Z,8.65
2022-10-29T12:22:46.955Z,8.55
2022-10-29T12:28:54.626Z,7.88
2022-10-29T12:31:52.797Z,9.98
2022-10-29T12:34:57.911Z,14.38
2022-10-29T12:38:02.556Z,9.90
2022-10-29T12:40:53.203Z,11.57
2022-10-29T12:43:39.974Z,9.40
2022-10-29T12:46:38.475Z,10.48
2022-10-29T12:49:35.673Z,10.18
2022-10-29T12:52:36.251Z,10.27
2022-10-29T12:55:21.325Z,10.38
2022-10-29T12:58:43.976Z,15.95
2022-10-29T13:02:09.763Z,13.15
2022-10-29T13:04:33.615Z,10.45
2022-10-29T13:07:18.423Z,11.82
2022-10-29T13:10:21.610Z,11.65
2022-10-29T13:13:15.798Z,11.95
2022-10-29T13:16:04.774Z,11.82
2022-10-29T13:19:14.862Z,11.30
2022-10-29T13:22:20.977Z,11.27
2022-10-29T13:25:27.468Z,11.13
2022-10-29T13:28:15.028Z,11.57
2022-10-29T13:30:59.467Z,11.10
2022-10-29T13:33:44.025Z,15.35
2022-10-29T13:36:31.316Z,12.85
2022-10-29T13:39:18.929Z,12.93
2022-10-29T13:42:09.087Z,13.90
2022-10-29T13:44:53.738Z,10.80
2022-10-29T13:47:40.533Z,12.73
2022-10-29T13:50:26.942Z,13.80
2022-10-29T13:53:15.172Z,11.15
2022-10-29T13:56:00.377Z,13.90
2022-10-29T13:58:48.120Z,10.30
2022-10-29T14:01:33.298Z,14.70
2022-10-29T14:04:29.929Z,12.80
2022-10-29T14:10:12.703Z,15.93
2022-10-29T14:13:08.352Z,12.85
2022-10-29T14:16:05.363Z,15.35
2022-10-29T14:18:50.594Z,17.02
2022-10-29T14:21:39.675Z,18.83
2022-10-29T14:24:24.612Z,14.05
2022-10-29T14:27:12.096Z,15.68
2022-10-29T14:30:17.535Z,17.42
2022-10-29T14:33:16.972Z,16.60
2022-10-29T14:36:08.864Z,16.25
2022-10-29T14:39:00.983Z,18.98
2022-10-29T14:41:46.890Z,20.40
2022-10-29T14:44:32.410Z,24.30
2022-10-29T14:47:46.632Z,21.60
2022-10-29T14:50:31.678Z,20.13
2022-10-29T14:53:26.969Z,25.55
2022-10-29T14:56:19.470Z,20.35
2022-10-29T14:59:14.767Z,24.92
2022-10-29T15:02:36.947Z,19.15
2022-10-29T15:05:22.626Z,16.38
2022-10-29T15:08:10.985Z,14.88
2022-10-29T15:10:57.409Z,16.27
2022-10-29T15:13:41.919Z,17.67
2022-10-29T15:16:28.302Z,16.42
2022-10-29T15:19:15.701Z,16.77
2022-10-29T15:22:00.277Z,15.90
2022-10-29T15:24:48.608Z,22.17
2022-10-29T15:27:38.858Z,24.30
2022-10-29T15:33:29.750Z,17.30
2022-10-29T15:36:14.920Z,18.45
2022-10-29T15:39:20.985Z,16.25
2022-10-29T15:42:20.114Z,19.52
2022-10-29T15:45:13.976Z,16.85
2022-10-29T15:48:05.064Z,18.63
2022-10-29T15:50:49.772Z,18.67
2022-10-29T15:53:34.758Z,21.65
2022-10-29T15:56:19.934Z,20.85
2022-10-29T15:59:05.503Z,24.10
2022-10-29T16:01:50.415Z,22.13
2022-10-29T16:04:35.234Z,21.45
2022-10-29T16:07:20.184Z,16.58
2022-10-29T16:10:05.672Z,18.67
2022-10-29T16:12:50.529Z,20.35
2022-10-29T16:15:38.720Z,24.35
2022-10-29T16:18:26.919Z,20.20
2022-10-29T16:21:23.054Z,18.33
2022-10-29T16:24:13.765Z,21.25
2022-10-29T16:26:58.547Z,21.83
2022-10-29T16:29:46.350Z,20.35
2022-10-29T16:32:30.974Z,20.85
2022-10-29T16:35:21.923Z,18.27
2022-10-29T16:38:06.811Z,23.90
2022-10-29T16:40:51.738Z,19.95
2022-10-29T16:43:36.762Z,25.67
2022-10-29T16:46:21.876Z,18.73
2022-10-29T16:49:06.914Z,19.15
2022-10-29T16:51:51.905Z,21.83
2022-10-29T16:54:37.071Z,20.05
2022-10-29T16:57:23.114Z,16.33
2022-10-29T17:00:08.470Z,17.75
2022-10-29T17:02:53.458Z,17.90
2022-10-29T17:05:40.731Z,20.02
2022-10-29T17:08:30.353Z,16.98
2022-10-29T17:11:14.898Z,14.82
2022-10-29T17:13:59.687Z,19.40
2022-10-29T17:16:44.649Z,16.55
2022-10-29T17:19:29.307Z,16.17
2022-10-29T17:22:15.501Z,15.35
2022-10-29T17:25:00.095Z,13.60
2022-10-29T17:27:44.990Z,16.50
2022-10-29T17:30:29.480Z,18.55
2022-10-29T17:33:15.485Z,22.05
2022-10-29T17:36:05.114Z,15.13
2022-10-29T17:38:50.160Z,19.33
2022-10-29T17:41:35.144Z,17.95
2022-10-29T17:44:20.185Z,20.45
2022-10-29T17:47:04.965Z,14.73
2022-10-29T17:49:49.562Z,16.83
2022-10-29T17:52:34.455Z,17.05
2022-10-29T17:55:19.967Z,15.23
2022-10-29T17:58:04.884Z,14.57
2022-10-29T18:00:50.056Z,16.25
2022-10-29T18:03:36.007Z,17.38
2022-10-29T18:06:20.929Z,14.20
2022-10-29T18:09:06.274Z,18.33
2022-10-29T18:11:51.049Z,15.50
2022-10-29T18:14:36.153Z,19.38
2022-10-29T18:17:21.141Z,17.48
2022-10-29T18:20:06.589Z,14.38
2022-10-29T18:22:55.528Z,14.68
2022-10-29T18:25:41.016Z,17.65
2022-10-29T18:28:25.460Z,20.48
2022-10-29T18:31:10.606Z,17.98
2022-10-29T18:33:56.870Z,16.42
2022-10-29T18:36:42.356Z,16.67
2022-10-29T18:39:27.355Z,20.05
2022-10-29T18:42:12.282Z,17.25
2022-10-29T18:44:57.708Z,17.27
2022-10-29T18:47:42.369Z,18.90
2022-10-29T18:50:27.459Z,19.63
2022-10-29T18:53:12.732Z,16.90
2022-10-29T18:55:57.848Z,16.38
2022-10-29T18:58:43.539Z,19.48
2022-10-29T19:01:30.975Z,19.58
2022-10-29T19:04:16.166Z,19.20
2022-10-29T19:07:00.983Z,22.58
2022-10-29T19:09:46.911Z,17.13
2022-10-29T19:12:31.981Z,20.00
2022-10-29T19:15:17.054Z,17.50
2022-10-29T19:18:01.925Z,19.65
2022-10-29T19:20:46.703Z,19.38
2022-10-29T19:23:32.004Z,21.67
2022-10-29T19:26:17.974Z,28.20
2022-10-29T19:29:04.055Z,21.20
2022-10-29T19:31:48.699Z,23.55
2022-10-29T19:34:33.628Z,20.17
2022-10-29T19:37:18.690Z,22.52
2022-10-29T19:40:03.487Z,19.55
2022-10-29T19:42:48.347Z,27.15
2022-10-29T19:45:33.302Z,23.80
2022-10-29T19:48:18.536Z,29.58
2022-10-29T19:51:04.211Z,23.98
2022-10-29T19:53:50.702Z,19.65
2022-10-29T19:56:35.519Z,18.45
2022-10-29T19:59:20.362Z,24.58
2022-10-29T20:02:05.169Z,20.17
2022-10-29T20:04:50.077Z,26.65
2022-10-29T20:07:35.132Z,21.10
2022-10-29T20:10:19.955Z,19.85
2022-10-29T20:13:05.036Z,21.90
2022-10-29T20:15:50.810Z,21.50
2022-10-29T20:18:37.546Z,24.65
2022-10-29T20:21:22.501Z,23.30
2022-10-29T20:24:07.492Z,21.30
2022-10-29T20:26:52.540Z,22.35
2022-10-29T20:29:37.545Z,22.52
2022-10-29T20:32:22.317Z,24.20
2022-10-29T20:35:31.739Z,20.50
2022-10-29T20:38:16.527Z,21.17
2022-10-29T20:41:01.218Z,19.67
2022-10-29T20:43:52.100Z,23.65
2022-10-29T20:46:40.886Z,22.55
2022-10-29T20:49:28.607Z,20.67
2022-10-29T20:52:13.566Z,19.13
2022-10-29T20:54:58.619Z,25.13
2022-10-29T20:57:43.710Z,20.27
2022-10-29T21:00:28.869Z,21.60
2022-10-29T21:03:15.187Z,22.35
2022-10-29T21:06:01.600Z,24.60
2022-10-29T21:08:48.293Z,18.60
2022-10-29T21:11:33.155Z,19.85
2022-10-29T21:14:18.105Z,20.75
2022-10-29T21:17:03.195Z,22.35
2022-10-29T21:19:48.356Z,22.35
2022-10-29T21:22:33.157Z,24.48
2022-10-29T21:25:18.034Z,22.20
2022-10-29T21:28:03.067Z,19.92
2022-10-29T21:30:47.994Z,20.10
2022-10-29T21:33:33.125Z,21.27
2022-10-29T21:36:18.483Z,20.55
2022-10-29T21:39:03.434Z,20.00
2022-10-29T21:41:48.072Z,21.08
2022-10-29T21:44:33.050Z,21.10
2022-10-29T21:47:18.132Z,23.23
2022-10-29T21:50:03.313Z,22.42
2022-10-29T21:52:48.204Z,21.75
2022-10-29T21:55:34.066Z,23.70
2022-10-29T21:58:18.592Z,24.63
2022-10-29T22:01:10.237Z,20.10
2022-10-29T22:03:55.413Z,23.60
2022-10-29T22:06:40.373Z,25.02
2022-10-29T22:09:24.983Z,26.38
2022-10-29T22:12:09.560Z,30.38
2022-10-29T22:14:54.522Z,26.40
2022-10-29T22:17:39.301Z,24.83
2022-10-29T22:20:24.378Z,25.52
2022-10-29T22:23:09.447Z,20.38
2022-10-29T22:25:54.369Z,20.83
2022-10-29T22:28:39.678Z,21.75
2022-10-29T22:31:24.681Z,20.58
2022-10-29T22:34:09.376Z,24.10
2022-10-29T22:36:53.834Z,23.48
2022-10-29T22:39:39.298Z,20.77
2022-10-29T22:42:24.299Z,22.75
2022-10-29T22:45:09.720Z,21.33
2022-10-29T22:47:54.621Z,20.00
2022-10-29T22:50:39.257Z,21.25
2022-10-29T22:53:24.418Z,23.65
2022-10-29T22:56:14.480Z,23.20
2022-10-29T22:58:59.784Z,29.13
2022-10-29T23:01:45.685Z,22.83
2022-10-29T23:04:30.528Z,23.38
2022-10-29T23:07:15.536Z,24.83
2022-10-29T23:10:00.419Z,20.85
2022-10-29T23:12:45.315Z,23.58
2022-10-29T23:15:30.552Z,23.52
2022-10-29T23:18:15.588Z,25.90
2022-10-29T23:21:02.017Z,23.73
2022-10-29T23:23:49.157Z,24.70
2022-10-29T23:26:33.969Z,21.05
2022-10-29T23:29:19.025Z,23.42
2022-10-29T23:32:03.662Z,25.73
2022-10-29T23:34:49.298Z,22.42
2022-10-29T23:37:34.558Z,22.48
2022-10-29T23:40:19.141Z,22.35
2022-10-29T23:43:03.598Z,25.40
2022-10-29T23:45:48.395Z,23.20
2022-10-29T23:48:33.276Z,26.55
2022-10-29T23:51:18.236Z,24.17
2022-10-29T23:54:03.237Z,23.42
2022-10-29T23:56:48.206Z,22.60
2022-10-29T23:59:33.341Z,21.52
